Time;durP1;ratioP1;P1;durP2;ratioP2;P2;SDS_P1;SDS_P2;PMS_P1;PMS_P2;Temp;Humidity;BMP_temperature;BMP_pressure;BME280_temperature;BME280_humidity;BME280_pressure;Samples;Min_cycle;Max_cycle;Signal;HPM_P1;HPM_P2
2022/03/10 00:02:24;;;;;;;19.90;9.10;;;1.30;99.90;;;;;;6268890;22;20438;-62
2022/03/10 00:04:49;;;;;;;12.90;8.77;;;1.20;99.90;;;;;;6263803;22;20403;-60
2022/03/10 00:07:15;;;;;;;17.65;9.10;;;1.20;99.90;;;;;;6267373;22;20533;-55
2022/03/10 00:09:41;;;;;;;18.45;9.35;;;1.20;99.90;;;;;;6267547;22;20329;-56
2022/03/10 00:12:07;;;;;;;18.38;8.60;;;1.10;99.90;;;;;;6268080;22;20055;-57
2022/03/10 00:14:32;;;;;;;20.85;9.13;;;1.10;99.90;;;;;;6266698;22;20019;-59
2022/03/10 00:16:58;;;;;;;16.67;9.80;;;1.10;99.90;;;;;;6267618;22;20073;-57
2022/03/10 00:19:24;;;;;;;15.20;8.80;;;1.00;99.90;;;;;;6267413;22;20038;-57
2022/03/10 00:21:50;;;;;;;14.82;8.63;;;1.00;99.90;;;;;;6266967;22;20031;-57
2022/03/10 00:24:18;;;;;;;12.57;8.55;;;1.00;99.90;;;;;;6267094;22;20125;-57
2022/03/10 00:26:44;;;;;;;15.68;9.02;;;1.00;99.90;;;;;;6240078;22;20016;-58
2022/03/10 00:29:10;;;;;;;15.00;8.48;;;0.90;99.90;;;;;;6267054;22;20413;-58
2022/03/10 00:31:36;;;;;;;13.88;9.18;;;0.90;99.90;;;;;;6268127;22;20018;-57
2022/03/10 00:34:02;;;;;;;15.32;8.50;;;0.90;99.90;;;;;;6267353;22;20023;-56
2022/03/10 00:36:28;;;;;;;13.98;8.43;;;0.80;99.90;;;;;;6266621;22;20049;-56
2022/03/10 00:38:54;;;;;;;13.63;8.80;;;0.70;99.90;;;;;;6267336;22;20023;-56
2022/03/10 00:41:20;;;;;;;13.27;8.32;;;0.80;99.90;;;;;;6265464;22;20020;-56
2022/03/10 00:43:46;;;;;;;12.88;9.18;;;0.80;99.90;;;;;;6240160;22;20019;-55
2022/03/10 00:46:12;;;;;;;16.50;8.45;;;0.70;99.90;;;;;;6267516;22;20104;-56
2022/03/10 00:48:38;;;;;;;13.82;9.35;;;0.70;99.90;;;;;;6267057;22;20023;-56
2022/03/10 00:51:04;;;;;;;15.23;8.68;;;0.60;99.90;;;;;;6267387;22;20057;-55
2022/03/10 00:53:30;;;;;;;16.80;8.52;;;0.60;99.90;;;;;;6267144;22;20358;-55
2022/03/10 00:55:56;;;;;;;15.95;8.93;;;0.80;99.90;;;;;;6267312;22;20029;-56
2022/03/10 00:58:22;;;;;;;14.35;8.57;;;0.60;99.90;;;;;;6267253;22;20023;-55
2022/03/10 01:00:47;;;;;;;15.85;9.10;;;0.50;99.90;;;;;;6235549;22;20047;-60
2022/03/10 01:03:13;;;;;;;11.10;8.20;;;0.50;99.90;;;;;;6266242;22;20011;-58
2022/03/10 01:05:39;;;;;;;12.60;8.23;;;0.50;99.90;;;;;;6267031;22;20027;-55
2022/03/10 01:08:05;;;;;;;18.05;9.35;;;0.40;99.90;;;;;;6266799;22;20023;-55
2022/03/10 01:10:30;;;;;;;17.83;9.23;;;0.40;99.90;;;;;;6239916;22;20011;-56
2022/03/10 01:12:56;;;;;;;15.05;9.00;;;1.00;99.90;;;;;;6267050;22;20016;-55
2022/03/10 01:15:25;;;;;;;15.80;9.38;;;0.40;99.90;;;;;;6239128;22;20515;-55
2022/03/10 01:17:51;;;;;;;14.13;8.82;;;0.40;99.90;;;;;;6267194;22;20022;-56
2022/03/10 01:20:18;;;;;;;15.77;8.80;;;0.40;99.90;;;;;;6267403;22;20091;-56
2022/03/10 01:22:44;;;;;;;18.95;8.65;;;0.30;99.90;;;;;;6267661;22;20016;-55
2022/03/10 01:25:10;;;;;;;15.82;9.40;;;0.30;99.90;;;;;;6266038;22;20076;-56
2022/03/10 01:27:36;;;;;;;13.25;8.57;;;0.30;99.90;;;;;;6265692;22;20034;-58
2022/03/10 01:30:04;;;;;;;16.88;8.95;;;0.20;99.90;;;;;;6264060;22;20402;-57
2022/03/10 01:32:30;;;;;;;16.58;10.05;;;0.20;99.90;;;;;;6265122;22;20023;-57
2022/03/10 01:34:56;;;;;;;15.55;9.75;;;0.20;99.90;;;;;;6265063;22;20023;-58
2022/03/10 01:37:21;;;;;;;16.38;9.35;;;0.20;99.90;;;;;;6264893;22;20453;-59
2022/03/10 01:39:47;;;;;;;14.55;9.13;;;0.20;99.90;;;;;;6264981;22;20097;-61
2022/03/10 01:42:13;;;;;;;14.88;8.85;;;0.20;99.90;;;;;;6265176;22;20027;-61
2022/03/10 01:44:39;;;;;;;15.45;10.25;;;0.20;99.90;;;;;;6265914;22;20024;-60
2022/03/10 01:47:05;;;;;;;16.13;10.23;;;0.20;99.90;;;;;;6265536;22;20016;-59
2022/03/10 01:49:35;;;;;;;17.70;9.88;;;0.20;99.90;;;;;;6265057;22;20055;-60
2022/03/10 01:52:02;;;;;;;13.52;8.88;;;0.20;99.90;;;;;;6265007;22;20019;-61
2022/03/10 01:54:27;;;;;;;15.52;8.88;;;0.20;99.90;;;;;;6265030;22;20086;-61
2022/03/10 01:56:53;;;;;;;15.90;9.40;;;0.20;99.90;;;;;;6265540;22;20450;-60
2022/03/10 01:59:20;;;;;;;13.98;8.65;;;0.20;99.90;;;;;;6266818;22;20449;-61
2022/03/10 02:01:46;;;;;;;13.88;8.98;;;0.20;99.90;;;;;;6265900;22;20015;-62
2022/03/10 02:04:13;;;;;;;17.00;10.68;;;0.20;99.90;;;;;;6266627;22;20414;-62
2022/03/10 02:06:39;;;;;;;16.15;10.32;;;0.20;99.90;;;;;;6267073;22;20450;-58
2022/03/10 02:11:50;;;;;;;20.52;11.48;;;0.10;99.90;;;;;;6267617;22;20023;-57
2022/03/10 02:19:56;;;;;;;17.30;10.07;;;0.00;99.90;;;;;;6267055;22;20477;-58
2022/03/10 02:22:23;;;;;;;12.88;8.73;;;0.00;99.90;;;;;;6266782;22;20087;-60
2022/03/10 02:24:50;;;;;;;14.50;9.77;;;0.00;99.90;;;;;;6267072;22;20019;-60
2022/03/10 02:27:21;;;;;;;13.52;9.38;;;1.00;99.90;;;;;;6266711;22;20020;-65
2022/03/10 02:29:53;;;;;;;13.80;8.60;;;-0.10;99.90;;;;;;6267007;22;20058;-60
2022/03/10 02:32:19;;;;;;;22.17;10.32;;;-0.10;99.90;;;;;;6267689;22;20030;-58
2022/03/10 02:34:46;;;;;;;14.05;8.52;;;-0.10;99.90;;;;;;6266881;22;20084;-58
2022/03/10 02:37:12;;;;;;;15.02;9.75;;;-0.20;99.90;;;;;;6266237;22;20015;-58
2022/03/10 02:39:39;;;;;;;15.38;9.25;;;-0.20;99.90;;;;;;6266428;22;20086;-58
2022/03/10 02:42:06;;;;;;;19.88;8.45;;;-0.20;99.90;;;;;;6266494;22;20016;-58
2022/03/10 02:44:32;;;;;;;19.15;10.00;;;-0.20;99.90;;;;;;6267017;22;20334;-58
2022/03/10 02:46:58;;;;;;;14.18;9.10;;;-0.30;99.90;;;;;;6267750;22;20035;-58
2022/03/10 02:49:23;;;;;;;16.35;9.57;;;-0.30;99.90;;;;;;6268449;22;20516;-58
2022/03/10 02:51:50;;;;;;;16.17;10.23;;;-0.30;99.90;;;;;;6241074;22;20019;-58
2022/03/10 02:54:16;;;;;;;17.38;10.45;;;-0.40;99.90;;;;;;6268443;22;20023;-58
2022/03/10 02:56:42;;;;;;;14.02;9.27;;;-0.40;99.90;;;;;;6268086;22;20019;-58
2022/03/10 02:59:09;;;;;;;13.65;9.27;;;-0.40;99.90;;;;;;6268383;22;20020;-59
2022/03/10 03:01:34;;;;;;;16.33;9.25;;;-0.50;99.90;;;;;;6268990;22;20110;-59
2022/03/10 03:04:00;;;;;;;15.70;10.07;;;-0.50;99.90;;;;;;6268774;22;20059;-59
2022/03/10 03:06:26;;;;;;;15.85;9.55;;;-0.50;99.90;;;;;;6268290;22;20069;-58
2022/03/10 03:08:51;;;;;;;12.88;9.82;;;-0.50;99.90;;;;;;6268559;22;20020;-58
2022/03/10 03:11:17;;;;;;;16.98;10.40;;;-0.50;99.90;;;;;;6268619;22;20020;-59
2022/03/10 03:13:43;;;;;;;14.90;9.25;;;-0.50;99.90;;;;;;6268517;22;20052;-58
2022/03/10 03:16:09;;;;;;;18.15;8.63;;;-0.50;99.90;;;;;;6268126;22;20090;-58
2022/03/10 03:18:34;;;;;;;15.00;9.50;;;-0.50;99.90;;;;;;6268906;22;20086;-58
2022/03/10 03:21:00;;;;;;;14.57;8.73;;;-0.60;99.90;;;;;;6268685;22;20030;-58
2022/03/10 03:23:26;;;;;;;19.27;11.05;;;-0.60;99.90;;;;;;6268330;22;20397;-57
2022/03/10 03:25:52;;;;;;;15.15;9.07;;;-0.60;99.90;;;;;;6268047;22;20099;-57
2022/03/10 03:28:21;;;;;;;16.98;10.18;;;-0.60;99.90;;;;;;6268031;22;20072;-59
2022/03/10 03:30:47;;;;;;;19.67;10.90;;;-0.60;99.90;;;;;;6268831;22;20134;-59
2022/03/10 03:33:13;;;;;;;16.65;9.68;;;-0.60;99.90;;;;;;6268064;22;20379;-58
2022/03/10 03:35:39;;;;;;;19.88;10.48;;;-0.60;99.90;;;;;;6268025;22;20078;-58
2022/03/10 03:38:04;;;;;;;17.02;9.85;;;-0.60;99.90;;;;;;6267612;22;20493;-58
2022/03/10 03:40:30;;;;;;;16.40;9.88;;;-0.60;99.90;;;;;;6267713;22;20484;-58
2022/03/10 03:42:55;;;;;;;16.85;9.70;;;-0.60;99.90;;;;;;6268542;22;20469;-58
2022/03/10 03:45:22;;;;;;;16.52;9.32;;;-0.20;99.90;;;;;;6267599;22;20030;-58
2022/03/10 03:47:48;;;;;;;23.15;11.02;;;-0.60;99.90;;;;;;6268109;22;20051;-58
2022/03/10 03:50:14;;;;;;;12.52;8.57;;;-0.60;99.90;;;;;;6268494;22;20030;-58
2022/03/10 03:52:39;;;;;;;17.30;9.60;;;-0.60;99.90;;;;;;6267756;22;20020;-58
2022/03/10 03:55:06;;;;;;;16.42;9.70;;;-0.70;99.90;;;;;;6267778;22;20454;-60
2022/03/10 03:57:31;;;;;;;15.02;8.25;;;-0.60;99.90;;;;;;6267122;22;20094;-58
2022/03/10 03:59:57;;;;;;;14.80;9.90;;;-0.70;99.90;;;;;;6268282;22;20050;-58
2022/03/10 04:02:22;;;;;;;14.30;9.27;;;-0.60;99.90;;;;;;6239256;22;20094;-58
2022/03/10 04:04:48;;;;;;;14.95;9.35;;;-0.70;99.90;;;;;;6267609;22;20406;-58
2022/03/10 04:07:15;;;;;;;19.10;10.20;;;-0.60;99.90;;;;;;6267673;22;20049;-58
2022/03/10 04:09:41;;;;;;;12.45;8.40;;;-0.70;99.90;;;;;;6268178;22;20027;-58
2022/03/10 04:12:07;;;;;;;17.13;9.60;;;-0.60;99.90;;;;;;6267960;22;20023;-58
2022/03/10 04:14:33;;;;;;;17.65;10.68;;;-0.70;99.90;;;;;;6267872;22;20500;-58
2022/03/10 04:16:59;;;;;;;16.08;9.32;;;-0.70;99.90;;;;;;6267436;22;20814;-58
2022/03/10 04:19:24;;;;;;;17.15;9.80;;;-0.70;99.90;;;;;;6267567;22;20081;-58
2022/03/10 04:21:50;;;;;;;15.45;9.40;;;-0.70;99.90;;;;;;6267882;22;20020;-58
2022/03/10 04:24:16;;;;;;;17.83;9.43;;;-0.70;99.90;;;;;;6268194;22;20027;-75
2022/03/10 04:26:42;;;;;;;13.55;8.70;;;-0.70;99.90;;;;;;6268189;22;20055;-65
2022/03/10 04:29:08;;;;;;;16.38;9.52;;;-0.70;99.90;;;;;;6267459;22;20051;-69
2022/03/10 04:31:34;;;;;;;14.57;9.48;;;-0.70;99.90;;;;;;6267579;22;20453;-71
2022/03/10 04:33:59;;;;;;;17.35;10.90;;;-0.80;99.90;;;;;;6266834;22;20346;-60
2022/03/10 04:36:25;;;;;;;13.30;8.50;;;-0.80;99.90;;;;;;6267481;22;20016;-59
2022/03/10 04:38:51;;;;;;;14.35;8.63;;;-0.80;99.90;;;;;;6267306;22;20385;-61
2022/03/10 04:41:17;;;;;;;12.80;8.40;;;-0.80;99.90;;;;;;6267668;22;20373;-61
2022/03/10 04:43:43;;;;;;;15.55;9.10;;;-0.80;99.90;;;;;;6267500;22;20446;-61
2022/03/10 04:46:08;;;;;;;13.60;9.43;;;-0.80;99.90;;;;;;6266902;22;20058;-60
2022/03/10 04:48:34;;;;;;;13.63;8.43;;;-0.90;99.90;;;;;;6267425;22;20023;-58
2022/03/10 04:51:00;;;;;;;14.88;8.77;;;0.50;99.90;;;;;;6267544;22;20434;-58
2022/03/10 04:53:26;;;;;;;16.52;9.63;;;-0.90;99.90;;;;;;6266740;22;20334;-58
2022/03/10 04:55:52;;;;;;;15.05;10.23;;;-1.00;99.90;;;;;;6267035;22;20015;-58
2022/03/10 04:58:18;;;;;;;15.35;9.48;;;-1.00;99.90;;;;;;6239757;22;20038;-59
2022/03/10 05:00:44;;;;;;;15.77;8.52;;;-1.00;99.90;;;;;;6267078;22;20030;-58
2022/03/10 05:03:09;;;;;;;20.33;9.52;;;-1.10;99.90;;;;;;6239687;22;20073;-59
2022/03/10 05:05:35;;;;;;;15.15;9.48;;;-1.10;99.90;;;;;;6267557;22;20020;-58
2022/03/10 05:08:01;;;;;;;16.50;9.50;;;-1.10;99.90;;;;;;6266684;22;20020;-58
2022/03/10 05:10:27;;;;;;;15.73;9.60;;;-1.10;99.90;;;;;;6267230;22;20035;-58
2022/03/10 05:12:56;;;;;;;14.27;8.57;;;-1.10;99.90;;;;;;6266829;22;20026;-59
2022/03/10 05:15:32;;;;;;;13.02;8.75;;;-1.20;99.90;;;;;;6267623;22;20027;-59
2022/03/10 05:17:58;;;;;;;16.67;8.90;;;-1.10;99.90;;;;;;6267296;22;20338;-60
2022/03/10 05:20:27;;;;;;;13.85;8.63;;;-1.10;99.90;;;;;;6266701;22;20735;-58
2022/03/10 05:22:55;;;;;;;16.08;9.00;;;-1.10;99.90;;;;;;6267417;22;20026;-59
2022/03/10 05:25:25;;;;;;;18.10;10.95;;;-1.10;99.90;;;;;;6267015;22;20058;-59
2022/03/10 05:27:52;;;;;;;18.73;9.70;;;-1.20;99.90;;;;;;6267292;22;20362;-61
2022/03/10 05:30:19;;;;;;;17.02;9.20;;;-1.20;99.90;;;;;;6267040;22;20047;-59
2022/03/10 05:32:46;;;;;;;13.77;8.15;;;-1.20;99.90;;;;;;6240159;22;20030;-58
2022/03/10 05:35:16;;;;;;;14.85;8.00;;;-1.20;99.90;;;;;;6239145;22;20020;-58
2022/03/10 05:37:43;;;;;;;15.05;9.35;;;-1.20;99.90;;;;;;6266699;22;20015;-58
2022/03/10 05:40:15;;;;;;;16.05;9.57;;;-1.20;99.90;;;;;;6266263;22;20319;-58
2022/03/10 05:42:41;;;;;;;19.25;9.95;;;-1.20;99.90;;;;;;6268017;22;20015;-59
2022/03/10 05:45:08;;;;;;;20.80;9.45;;;-1.20;99.90;;;;;;6266734;22;20138;-60
2022/03/10 05:47:35;;;;;;;17.90;9.45;;;-1.20;99.90;;;;;;6267043;22;20019;-60
2022/03/10 05:50:02;;;;;;;15.00;9.23;;;-1.20;99.90;;;;;;6214471;22;20027;-59
2022/03/10 05:52:27;;;;;;;16.40;9.85;;;-1.20;99.90;;;;;;6267048;22;20047;-59
2022/03/10 05:54:53;;;;;;;12.80;8.85;;;-1.10;99.90;;;;;;6239527;22;20089;-60
2022/03/10 05:57:19;;;;;;;20.25;11.90;;;-1.10;99.90;;;;;;6267308;22;20022;-60
2022/03/10 05:59:44;;;;;;;16.20;8.80;;;-1.10;99.90;;;;;;6239684;22;20368;-60
2022/03/10 06:02:10;;;;;;;17.73;9.95;;;-1.10;99.90;;;;;;6266949;22;20016;-59
2022/03/10 06:04:35;;;;;;;15.93;10.25;;;-1.10;99.90;;;;;;6267369;22;20457;-58
2022/03/10 06:07:01;;;;;;;17.75;10.68;;;-1.00;99.90;;;;;;6267374;22;20042;-58
2022/03/10 06:09:27;;;;;;;12.98;8.27;;;-1.00;99.90;;;;;;6266623;22;20442;-59
2022/03/10 06:11:53;;;;;;;14.00;8.93;;;-0.30;99.90;;;;;;6266866;22;20099;-58
2022/03/10 06:14:18;;;;;;;18.10;9.95;;;-1.00;99.90;;;;;;6266286;22;20370;-59
2022/03/10 06:16:44;;;;;;;16.50;10.27;;;-1.00;99.90;;;;;;6266438;22;20874;-59
2022/03/10 06:19:11;;;;;;;16.38;10.35;;;-0.90;99.90;;;;;;6265828;22;20028;-59
2022/03/10 06:21:38;;;;;;;20.08;10.27;;;-0.90;99.90;;;;;;6267035;22;20091;-58
2022/03/10 06:24:05;;;;;;;15.40;9.50;;;-0.90;99.90;;;;;;6267440;22;20023;-58
2022/03/10 06:26:30;;;;;;;19.45;11.35;;;-0.80;99.90;;;;;;6266044;22;20026;-58
2022/03/10 06:28:56;;;;;;;19.90;10.70;;;-0.70;99.90;;;;;;6266620;22;20020;-61
2022/03/10 06:31:24;;;;;;;16.27;9.30;;;-0.70;99.90;;;;;;6267125;22;20020;-58
2022/03/10 06:33:51;;;;;;;15.73;10.13;;;-0.60;99.90;;;;;;6266841;22;20103;-58
2022/03/10 06:36:17;;;;;;;18.77;9.95;;;-0.50;99.90;;;;;;6267113;22;20745;-61
2022/03/10 06:38:43;;;;;;;20.70;11.45;;;-0.50;99.90;;;;;;6266730;22;20023;-61
2022/03/10 06:41:08;;;;;;;19.40;10.23;;;-0.40;99.90;;;;;;6266184;22;20015;-61
2022/03/10 06:43:34;;;;;;;14.43;9.70;;;-0.30;99.90;;;;;;6238172;22;20710;-59
2022/03/10 06:46:00;;;;;;;22.77;10.25;;;-0.30;99.90;;;;;;6238414;22;20082;-60
2022/03/10 06:48:25;;;;;;;20.70;10.05;;;-0.20;99.90;;;;;;6266054;22;20016;-60
2022/03/10 06:50:51;;;;;;;18.02;9.80;;;-0.40;99.90;;;;;;6265593;22;20031;-61
2022/03/10 06:53:18;;;;;;;16.13;9.63;;;0.10;99.90;;;;;;6265661;22;20446;-60
2022/03/10 06:55:43;;;;;;;16.02;9.82;;;0.10;99.90;;;;;;6265971;22;20338;-58
2022/03/10 06:58:09;;;;;;;19.08;9.80;;;0.30;99.90;;;;;;6266106;22;20019;-58
2022/03/10 07:00:35;;;;;;;17.10;9.88;;;0.40;99.90;;;;;;6266780;22;20423;-58
2022/03/10 07:03:00;;;;;;;17.73;10.80;;;1.00;99.90;;;;;;6265848;22;20054;-58
2022/03/10 07:05:26;;;;;;;16.10;10.38;;;0.70;99.90;;;;;;6266186;22;20020;-58
2022/03/10 07:07:52;;;;;;;21.15;10.10;;;0.80;99.90;;;;;;6234627;22;20446;-59
2022/03/10 07:10:18;;;;;;;17.08;10.50;;;1.00;99.90;;;;;;6258711;22;20016;-58
2022/03/10 07:12:43;;;;;;;16.40;9.18;;;1.20;99.90;;;;;;6236499;22;20438;-58
2022/03/10 07:15:11;;;;;;;14.95;9.77;;;1.40;99.90;;;;;;6264729;22;20015;-58
2022/03/10 07:17:41;;;;;;;16.67;9.93;;;1.60;99.90;;;;;;6263970;22;20091;-58
2022/03/10 07:20:08;;;;;;;13.98;8.63;;;1.80;99.90;;;;;;6263561;22;20023;-57
2022/03/10 07:22:34;;;;;;;15.23;10.50;;;2.00;99.90;;;;;;6237634;22;20458;-58
2022/03/10 07:25:00;;;;;;;17.90;9.68;;;2.70;99.90;;;;;;6264881;22;20023;-59
2022/03/10 07:27:26;;;;;;;17.23;10.43;;;2.40;99.90;;;;;;6263285;22;20408;-59
2022/03/10 07:29:52;;;;;;;18.60;10.00;;;2.50;99.90;;;;;;6237825;22;20020;-58
2022/03/10 07:32:18;;;;;;;20.23;10.32;;;2.70;99.90;;;;;;6266139;22;20370;-59
2022/03/10 07:34:47;;;;;;;18.88;10.40;;;2.90;99.90;;;;;;6267922;22;20478;-58
2022/03/10 07:37:14;;;;;;;19.42;10.43;;;3.00;99.90;;;;;;6239532;22;20357;-61
2022/03/10 07:39:40;;;;;;;18.77;10.18;;;3.10;99.90;;;;;;6266409;22;20024;-58
2022/03/10 07:42:06;;;;;;;17.02;9.57;;;3.30;99.90;;;;;;6266508;22;20023;-58
2022/03/10 07:44:31;;;;;;;18.70;11.18;;;3.50;99.90;;;;;;6266770;22;20090;-57
2022/03/10 07:46:57;;;;;;;17.17;10.27;;;3.70;99.90;;;;;;6268029;22;20087;-58
2022/03/10 07:49:23;;;;;;;17.38;9.93;;;4.10;99.90;;;;;;6266874;22;20020;-63
2022/03/10 07:51:48;;;;;;;26.50;10.95;;;4.00;99.90;;;;;;6267199;22;20050;-60
2022/03/10 07:54:14;;;;;;;14.23;9.35;;;4.40;99.90;;;;;;6266499;22;20027;-60
2022/03/10 07:56:40;;;;;;;15.35;9.40;;;4.70;99.90;;;;;;6267911;22;20101;-58
2022/03/10 07:59:05;;;;;;;18.38;10.77;;;5.00;99.90;;;;;;6268020;22;20026;-63
2022/03/10 08:01:31;;;;;;;18.75;9.73;;;5.30;99.90;;;;;;6267396;22;20023;-59
2022/03/10 08:03:57;;;;;;;16.73;10.02;;;5.50;99.90;;;;;;6267272;22;20058;-67
2022/03/10 08:06:25;;;;;;;15.25;9.80;;;5.70;99.90;;;;;;6267577;22;20069;-59
2022/03/10 08:08:51;;;;;;;19.25;9.63;;;6.00;99.90;;;;;;6267553;22;20023;-59
2022/03/10 08:11:17;;;;;;;16.10;9.98;;;6.20;99.90;;;;;;6267503;22;20049;-61
2022/03/10 08:13:44;;;;;;;15.20;9.80;;;6.50;99.90;;;;;;6268657;22;20054;-57
2022/03/10 08:16:10;;;;;;;14.38;9.75;;;6.70;99.90;;;;;;6266717;22;20393;-56
2022/03/10 08:18:36;;;;;;;16.50;9.45;;;7.10;99.90;;;;;;6267307;22;20028;-55
2022/03/10 08:21:02;;;;;;;15.60;10.05;;;7.30;99.90;;;;;;6267316;22;20020;-59
2022/03/10 08:23:29;;;;;;;13.80;8.93;;;7.50;99.90;;;;;;6267827;22;20022;-60
2022/03/10 08:25:55;;;;;;;12.75;8.77;;;7.70;99.90;;;;;;6268150;22;20520;-56
2022/03/10 08:28:21;;;;;;;14.75;9.65;;;7.90;99.90;;;;;;6267611;22;20086;-58
2022/03/10 08:30:47;;;;;;;15.77;8.65;;;8.20;99.90;;;;;;6267739;22;20023;-56
2022/03/10 08:33:13;;;;;;;17.23;9.73;;;8.30;99.90;;;;;;6266934;22;20384;-56
2022/03/10 08:35:39;;;;;;;15.80;9.98;;;8.60;99.90;;;;;;6268430;22;20031;-56
2022/03/10 08:38:05;;;;;;;15.05;9.32;;;8.70;99.90;;;;;;6266702;22;20433;-56
2022/03/10 08:40:31;;;;;;;19.17;10.43;;;8.80;99.90;;;;;;6266907;22;20023;-57
2022/03/10 08:42:57;;;;;;;14.80;9.82;;;9.00;99.90;;;;;;6267528;22;20062;-61
2022/03/10 08:45:26;;;;;;;16.23;9.65;;;9.00;99.90;;;;;;6266976;22;20403;-59
2022/03/10 08:47:53;;;;;;;15.55;8.95;;;9.10;99.90;;;;;;6267519;22;20020;-56
2022/03/10 08:50:19;;;;;;;13.45;8.48;;;9.20;99.90;;;;;;6267318;22;20022;-57
2022/03/10 08:52:46;;;;;;;18.20;10.30;;;9.50;99.90;;;;;;6214081;22;20069;-66
2022/03/10 08:55:12;;;;;;;15.00;9.25;;;9.60;99.90;;;;;;6214441;22;20107;-60
2022/03/10 08:57:39;;;;;;;13.32;9.35;;;9.80;99.90;;;;;;6267300;22;20323;-56
2022/03/10 09:00:08;;;;;;;14.38;10.30;;;10.00;99.90;;;;;;6266448;22;20403;-58
2022/03/10 09:02:34;;;;;;;12.95;8.43;;;10.10;99.90;;;;;;6267117;22;20051;-56
2022/03/10 09:04:59;;;;;;;15.13;10.10;;;10.40;99.90;;;;;;6267007;22;20070;-55
2022/03/10 09:07:25;;;;;;;10.85;8.13;;;10.80;99.90;;;;;;6266566;22;20102;-56
2022/03/10 09:09:51;;;;;;;16.73;10.52;;;11.10;99.90;;;;;;6267205;22;20024;-55
2022/03/10 09:12:17;;;;;;;15.75;9.60;;;11.40;99.90;;;;;;6266054;22;20023;-55
2022/03/10 09:14:43;;;;;;;14.18;9.93;;;11.80;99.90;;;;;;6266551;22;20065;-56
2022/03/10 09:17:08;;;;;;;15.45;9.27;;;12.10;99.90;;;;;;6237292;22;20414;-56
2022/03/10 09:19:34;;;;;;;13.75;9.77;;;12.40;99.90;;;;;;6266648;22;20427;-56
2022/03/10 09:22:01;;;;;;;16.95;9.80;;;12.80;99.70;;;;;;6266082;22;20049;-56
2022/03/10 09:24:26;;;;;;;12.85;9.10;;;13.10;98.70;;;;;;6267146;22;20091;-55
2022/03/10 09:26:52;;;;;;;13.82;8.85;;;13.40;99.00;;;;;;6266823;22;20054;-56
2022/03/10 09:29:18;;;;;;;15.68;8.93;;;13.60;98.80;;;;;;6266173;22;20019;-55
2022/03/10 09:31:43;;;;;;;11.27;8.45;;;14.10;98.20;;;;;;6264439;22;20183;-55
2022/03/10 09:34:09;;;;;;;12.93;8.82;;;14.50;97.80;;;;;;6266113;22;20019;-56
2022/03/10 09:36:35;;;;;;;12.40;8.63;;;14.80;97.40;;;;;;6267414;22;20030;-56
2022/03/10 09:39:01;;;;;;;12.60;8.98;;;15.00;97.00;;;;;;6267136;22;20024;-56
2022/03/10 09:41:28;;;;;;;11.88;9.20;;;15.40;96.70;;;;;;6238756;22;20442;-56
2022/03/10 09:43:55;;;;;;;12.48;9.18;;;15.60;96.30;;;;;;6213933;22;20085;-56
2022/03/10 09:46:21;;;;;;;14.93;9.65;;;15.90;95.90;;;;;;6266660;22;20074;-56
2022/03/10 09:48:47;;;;;;;13.02;9.73;;;16.20;95.50;;;;;;6266681;22;20015;-56
2022/03/10 09:51:15;;;;;;;14.45;9.65;;;16.40;94.00;;;;;;6266631;22;20557;-56
2022/03/10 09:53:41;;;;;;;13.13;9.25;;;16.60;94.40;;;;;;6238899;22;20058;-56
2022/03/10 09:56:07;;;;;;;12.60;8.70;;;16.90;93.80;;;;;;6265147;22;20061;-56
2022/03/10 09:58:33;;;;;;;12.20;8.32;;;17.00;92.90;;;;;;6265727;22;20016;-56
2022/03/10 10:01:04;;;;;;;15.45;9.32;;;17.30;93.00;;;;;;6238384;22;20382;-56
2022/03/10 10:03:30;;;;;;;10.93;8.80;;;17.60;91.40;;;;;;6263987;22;20031;-56
2022/03/10 10:06:00;;;;;;;15.27;8.90;;;17.80;91.40;;;;;;6266130;22;20723;-55
2022/03/10 10:08:27;;;;;;;9.18;7.90;;;17.90;90.60;;;;;;6265734;22;20062;-55
2022/03/10 10:11:01;;;;;;;12.30;9.25;;;18.10;91.40;;;;;;6266739;22;20023;-56
2022/03/10 10:13:37;;;;;;;13.05;8.82;;;18.20;87.00;;;;;;6238801;22;20393;-56
2022/03/10 10:16:04;;;;;;;11.90;8.80;;;18.30;88.60;;;;;;6266165;22;20110;-56
2022/03/10 10:18:31;;;;;;;12.82;9.30;;;18.50;90.30;;;;;;6266074;22;20023;-56
2022/03/10 10:20:57;;;;;;;12.85;8.90;;;18.70;89.10;;;;;;6265536;22;20105;-56
2022/03/10 10:23:41;;;;;;;12.20;9.10;;;18.90;88.70;;;;;;6265757;22;20041;-55
2022/03/10 10:26:09;;;;;;;12.55;9.02;;;19.10;86.20;;;;;;6266144;22;20530;-56
2022/03/10 10:28:43;;;;;;;12.05;8.40;;;19.00;85.00;;;;;;6266890;22;20020;-56
2022/03/10 10:31:10;;;;;;;12.98;8.38;;;18.80;82.30;;;;;;6266023;22;20023;-56
2022/03/10 10:33:38;;;;;;;15.52;8.30;;;19.00;86.00;;;;;;6266140;22;20094;-56
2022/03/10 10:36:24;;;;;;;12.73;9.02;;;19.10;84.10;;;;;;6264777;22;20016;-56
2022/03/10 10:38:52;;;;;;;11.80;8.32;;;19.20;79.70;;;;;;6263846;22;20016;-55
2022/03/10 10:41:25;;;;;;;9.32;7.95;;;19.20;83.10;;;;;;6265770;22;20022;-56
2022/03/10 10:43:59;;;;;;;9.33;7.40;;;19.20;82.20;;;;;;6265542;22;20024;-56
2022/03/10 10:46:27;;;;;;;12.98;9.38;;;19.10;82.60;;;;;;6237637;22;20744;-56
2022/03/10 10:48:54;;;;;;;11.75;8.32;;;19.30;82.50;;;;;;6266810;22;20031;-56
2022/03/10 10:51:50;;;;;;;14.93;8.68;;;19.30;82.90;;;;;;6265872;22;20485;-56
2022/03/10 10:54:24;;;;;;;11.50;8.73;;;19.40;77.70;;;;;;6263406;22;20345;-56
2022/03/10 10:56:53;;;;;;;10.50;8.00;;;19.50;79.60;;;;;;6266509;22;20023;-56
2022/03/10 10:59:36;;;;;;;12.25;9.02;;;19.60;78.60;;;;;;6265838;22;20030;-56
2022/03/10 11:02:20;;;;;;;11.38;8.38;;;19.30;76.30;;;;;;6266433;22;20315;-56
2022/03/10 11:04:53;;;;;;;11.73;9.35;;;19.30;75.10;;;;;;6266060;22;20437;-56
2022/03/10 11:07:21;;;;;;;12.30;8.87;;;19.30;78.10;;;;;;6267837;22;20359;-56
2022/03/10 11:09:48;;;;;;;11.70;8.57;;;19.50;78.60;;;;;;6267711;22;20094;-56
2022/03/10 11:12:16;;;;;;;10.45;9.20;;;19.70;78.20;;;;;;6241303;22;20122;-56
2022/03/10 11:14:43;;;;;;;11.38;8.95;;;19.80;78.50;;;;;;6267094;22;20023;-57
2022/03/10 11:17:11;;;;;;;12.15;8.98;;;19.90;77.50;;;;;;6260626;22;20477;-56
2022/03/10 11:19:39;;;;;;;11.20;8.07;;;19.80;77.50;;;;;;6236199;22;20438;-56
2022/03/10 11:22:08;;;;;;;12.77;8.85;;;20.00;77.20;;;;;;6264560;22;20050;-56
2022/03/10 11:24:46;;;;;;;11.10;8.82;;;19.90;76.70;;;;;;6235807;22;20429;-56
2022/03/10 11:27:14;;;;;;;13.93;9.75;;;19.90;76.80;;;;;;6264565;22;20509;-56
2022/03/10 11:29:44;;;;;;;10.88;8.82;;;20.10;76.00;;;;;;6264420;22;20603;-56
2022/03/10 11:32:11;;;;;;;15.18;10.10;;;20.20;75.60;;;;;;6263425;22;20464;-56
2022/03/10 11:34:54;;;;;;;11.90;9.60;;;20.40;75.50;;;;;;6263623;22;20092;-56
2022/03/10 11:37:50;;;;;;;15.02;10.15;;;20.60;72.00;;;;;;6263922;22;20054;-56
2022/03/10 11:40:18;;;;;;;13.52;10.05;;;20.40;73.10;;;;;;6263752;22;20371;-56
2022/03/10 11:42:44;;;;;;;11.35;9.27;;;20.90;75.00;;;;;;6264243;22;20087;-56
2022/03/10 11:45:18;;;;;;;12.65;9.50;;;21.40;74.20;;;;;;6262713;22;20122;-56
2022/03/10 11:47:47;;;;;;;12.73;9.82;;;21.40;71.00;;;;;;6236354;22;20442;-56
2022/03/10 11:50:24;;;;;;;13.98;10.18;;;22.00;73.10;;;;;;6263906;22;20091;-56
2022/03/10 11:52:57;;;;;;;12.73;10.60;;;23.00;69.40;;;;;;6263622;22;20019;-57
2022/03/10 11:55:24;;;;;;;12.57;9.93;;;25.10;68.00;;;;;;6262962;22;20030;-56
2022/03/10 11:57:53;;;;;;;12.43;9.88;;;27.40;68.00;;;;;;6263803;22;20020;-57
2022/03/10 12:00:22;;;;;;;10.75;9.25;;;28.60;64.50;;;;;;6263744;22;20020;-56
2022/03/10 12:02:57;;;;;;;12.90;10.05;;;29.80;60.40;;;;;;6263934;22;20548;-57
2022/03/10 12:05:51;;;;;;;12.38;9.88;;;30.70;56.60;;;;;;6236745;22;20019;-56
2022/03/10 12:08:21;;;;;;;10.45;9.15;;;31.50;56.10;;;;;;6264527;22;20055;-57
2022/03/10 12:10:50;;;;;;;11.68;9.70;;;31.30;55.20;;;;;;6264476;22;20020;-57
2022/03/10 12:13:44;;;;;;;10.80;9.57;;;31.30;54.40;;;;;;6263395;22;20023;-56
2022/03/10 12:16:27;;;;;;;10.73;8.93;;;30.90;52.40;;;;;;6259949;22;20019;-56
2022/03/10 12:18:54;;;;;;;11.52;9.10;;;30.60;51.60;;;;;;6260367;22;20113;-56
2022/03/10 12:21:29;;;;;;;10.98;9.25;;;31.80;52.40;;;;;;6235559;22;20141;-57
2022/03/10 12:24:04;;;;;;;10.73;9.13;;;30.90;51.00;;;;;;6264859;22;20030;-57
2022/03/10 12:26:33;;;;;;;13.50;9.68;;;32.30;50.80;;;;;;6263380;22;20521;-56
2022/03/10 12:29:07;;;;;;;11.57;8.82;;;32.40;48.70;;;;;;6263037;22;20394;-56
2022/03/10 12:31:35;;;;;;;14.57;10.35;;;32.00;48.70;;;;;;6263156;22;20512;-56
2022/03/10 12:34:14;;;;;;;13.52;9.45;;;31.40;49.10;;;;;;6263575;22;20024;-56
2022/03/10 12:36:49;;;;;;;12.07;9.55;;;31.70;48.00;;;;;;6235622;22;20028;-56
2022/03/10 12:39:20;;;;;;;12.65;10.35;;;31.50;48.50;;;;;;6262455;22;20030;-56
2022/03/10 12:41:51;;;;;;;14.95;10.57;;;32.20;48.30;;;;;;6262792;22;20019;-56
2022/03/10 12:44:23;;;;;;;14.25;9.35;;;32.10;48.10;;;;;;6262175;22;20625;-56
2022/03/10 12:46:50;;;;;;;10.38;8.13;;;30.30;47.30;;;;;;6262521;22;20016;-56
2022/03/10 12:49:45;;;;;;;13.15;9.55;;;28.40;48.30;;;;;;6262374;22;20023;-56